sensor_id;sensor_type;location;lat;lon;timestamp;pressure;altitude;pressure_sealevel;temperature;humidity
34921;BME280;21128;50.016;20.002;2024-03-02T00:00:39;98259.21;;;6.26;100.00
34921;BME280;21128;50.016;20.002;2024-03-02T00:03:26;98246.98;;;6.28;100.00
34921;BME280;21128;50.016;20.002;2024-03-02T00:05:53;98244.41;;;6.29;100.00
34921;BME280;21128;50.016;20.002;2024-03-02T00:08:26;98243.43;;;6.31;100.00
34921;BME280;21128;50.016;20.002;2024-03-02T00:10:58;98244.33;;;6.31;100.00
34921;BME280;21128;50.016;20.002;2024-03-02T00:13:25;98240.58;;;6.29;100.00
34921;BME280;21128;50.016;20.002;2024-03-02T00:15:56;98238.54;;;6.29;100.00
34921;BME280;21128;50.016;20.002;2024-03-02T00:18:34;98245.05;;;6.30;100.00
34921;BME280;21128;50.016;20.002;2024-03-02T00:21:01;98242.34;;;6.32;100.00
34921;BME280;21128;50.016;20.002;2024-03-02T00:23:30;98241.83;;;6.29;100.00
34921;BME280;21128;50.016;20.002;2024-03-02T00:25:58;98241.58;;;6.26;100.00
34921;BME280;21128;50.016;20.002;2024-03-02T00:28:31;98250.50;;;6.24;100.00
34921;BME280;21128;50.016;20.002;2024-03-02T00:31:04;98256.19;;;6.21;100.00
34921;BME280;21128;50.016;20.002;2024-03-02T00:33:34;98251.54;;;6.21;100.00
34921;BME280;21128;50.016;20.002;2024-03-02T00:36:03;98245.96;;;6.21;100.00
34921;BME280;21128;50.016;20.002;2024-03-02T00:38:30;98249.27;;;6.21;100.00
34921;BME280;21128;50.016;20.002;2024-03-02T00:41:07;98242.76;;;6.22;100.00
34921;BME280;21128;50.016;20.002;2024-03-02T00:43:44;98240.34;;;6.22;100.00
34921;BME280;21128;50.016;20.002;2024-03-02T00:46:12;98241.79;;;6.19;100.00
34921;BME280;21128;50.016;20.002;2024-03-02T00:48:51;98240.94;;;6.17;100.00
34921;BME280;21128;50.016;20.002;2024-03-02T00:51:19;98234.55;;;6.16;100.00
34921;BME280;21128;50.016;20.002;2024-03-02T00:53:47;98235.77;;;6.12;100.00
34921;BME280;21128;50.016;20.002;2024-03-02T00:56:14;98237.92;;;6.10;100.00
34921;BME280;21128;50.016;20.002;2024-03-02T00:58:41;98238.39;;;6.10;100.00
34921;BME280;21128;50.016;20.002;2024-03-02T01:01:08;98238.60;;;6.10;100.00
34921;BME280;21128;50.016;20.002;2024-03-02T01:03:36;98233.61;;;6.09;100.00
34921;BME280;21128;50.016;20.002;2024-03-02T01:06:04;98232.45;;;6.10;100.00
34921;BME280;21128;50.016;20.002;2024-03-02T01:08:31;98226.09;;;6.08;100.00
34921;BME280;21128;50.016;20.002;2024-03-02T01:10:58;98222.19;;;6.07;100.00
34921;BME280;21128;50.016;20.002;2024-03-02T01:13:25;98221.70;;;6.06;100.00
34921;BME280;21128;50.016;20.002;2024-03-02T01:15:53;98224.52;;;6.08;100.00
34921;BME280;21128;50.016;20.002;2024-03-02T01:18:19;98220.88;;;6.08;100.00
34921;BME280;21128;50.016;20.002;2024-03-02T01:20:46;98224.43;;;6.09;100.00
34921;BME280;21128;50.016;20.002;2024-03-02T01:23:13;98216.34;;;6.10;100.00
34921;BME280;21128;50.016;20.002;2024-03-02T01:25:39;98211.23;;;6.08;100.00
34921;BME280;21128;50.016;20.002;2024-03-02T01:28:06;98210.59;;;6.04;100.00
34921;BME280;21128;50.016;20.002;2024-03-02T01:30:33;98205.88;;;5.98;100.00
34921;BME280;21128;50.016;20.002;2024-03-02T01:33:00;98213.70;;;5.96;100.00
34921;BME280;21128;50.016;20.002;2024-03-02T01:35:28;98213.75;;;5.95;100.00
34921;BME280;21128;50.016;20.002;2024-03-02T01:37:55;98206.66;;;5.94;100.00
34921;BME280;21128;50.016;20.002;2024-03-02T01:40:22;98201.42;;;5.92;100.00
34921;BME280;21128;50.016;20.002;2024-03-02T01:42:53;98193.19;;;5.91;100.00
34921;BME280;21128;50.016;20.002;2024-03-02T01:45:24;98195.92;;;5.92;100.00
34921;BME280;21128;50.016;20.002;2024-03-02T01:47:51;98196.06;;;5.92;100.00
34921;BME280;21128;50.016;20.002;2024-03-02T01:50:28;98190.00;;;5.92;100.00
34921;BME280;21128;50.016;20.002;2024-03-02T01:52:56;98191.05;;;5.92;100.00
34921;BME280;21128;50.016;20.002;2024-03-02T01:55:23;98191.80;;;5.91;100.00
34921;BME280;21128;50.016;20.002;2024-03-02T01:57:50;98183.66;;;5.88;100.00
34921;BME280;21128;50.016;20.002;2024-03-02T02:00:21;98181.72;;;5.87;100.00
34921;BME280;21128;50.016;20.002;2024-03-02T02:02:48;98180.52;;;5.85;100.00
34921;BME280;21128;50.016;20.002;2024-03-02T02:05:17;98189.42;;;5.82;100.00
34921;BME280;21128;50.016;20.002;2024-03-02T02:07:43;98184.26;;;5.82;100.00
34921;BME280;21128;50.016;20.002;2024-03-02T02:10:10;98183.44;;;5.81;100.00
34921;BME280;21128;50.016;20.002;2024-03-02T02:12:37;98192.53;;;5.80;100.00
34921;BME280;21128;50.016;20.002;2024-03-02T02:15:21;98195.66;;;5.80;100.00
34921;BME280;21128;50.016;20.002;2024-03-02T02:17:48;98191.61;;;5.81;100.00
34921;BME280;21128;50.016;20.002;2024-03-02T02:20:15;98187.52;;;5.82;100.00
34921;BME280;21128;50.016;20.002;2024-03-02T02:22:59;98183.57;;;5.81;100.00
34921;BME280;21128;50.016;20.002;2024-03-02T02:25:27;98190.06;;;5.81;100.00
34921;BME280;21128;50.016;20.002;2024-03-02T02:27:55;98188.67;;;5.78;100.00
34921;BME280;21128;50.016;20.002;2024-03-02T02:30:27;98190.55;;;5.75;100.00
34921;BME280;21128;50.016;20.002;2024-03-02T02:32:54;98190.27;;;5.70;100.00
34921;BME280;21128;50.016;20.002;2024-03-02T02:35:21;98196.08;;;5.65;100.00
34921;BME280;21128;50.016;20.002;2024-03-02T02:37:49;98193.17;;;5.62;100.00
34921;BME280;21128;50.016;20.002;2024-03-02T02:40:17;98190.22;;;5.60;100.00
34921;BME280;21128;50.016;20.002;2024-03-02T02:42:45;98189.67;;;5.60;100.00
34921;BME280;21128;50.016;20.002;2024-03-02T02:45:12;98187.90;;;5.60;100.00
34921;BME280;21128;50.016;20.002;2024-03-02T02:47:41;98181.81;;;5.61;100.00
34921;BME280;21128;50.016;20.002;2024-03-02T02:50:09;98177.99;;;5.60;100.00
34921;BME280;21128;50.016;20.002;2024-03-02T02:52:37;98177.36;;;5.62;100.00
34921;BME280;21128;50.016;20.002;2024-03-02T02:55:13;98177.58;;;5.61;100.00
34921;BME280;21128;50.016;20.002;2024-03-02T02:57:41;98178.98;;;5.61;100.00
34921;BME280;21128;50.016;20.002;2024-03-02T03:00:13;98179.85;;;5.59;100.00
34921;BME280;21128;50.016;20.002;2024-03-02T03:02:47;98174.92;;;5.56;100.00
34921;BME280;21128;50.016;20.002;2024-03-02T03:05:15;98173.70;;;5.54;100.00
34921;BME280;21128;50.016;20.002;2024-03-02T03:07:43;98173.32;;;5.52;100.00
34921;BME280;21128;50.016;20.002;2024-03-02T03:10:11;98174.08;;;5.50;100.00
34921;BME280;21128;50.016;20.002;2024-03-02T03:12:38;98180.91;;;5.51;100.00
34921;BME280;21128;50.016;20.002;2024-03-02T03:15:08;98184.95;;;5.50;100.00
34921;BME280;21128;50.016;20.002;2024-03-02T03:17:35;98190.33;;;5.50;100.00
34921;BME280;21128;50.016;20.002;2024-03-02T03:20:04;98191.55;;;5.48;100.00
34921;BME280;21128;50.016;20.002;2024-03-02T03:22:32;98191.54;;;5.46;100.00
34921;BME280;21128;50.016;20.002;2024-03-02T03:24:59;98195.30;;;5.47;100.00
34921;BME280;21128;50.016;20.002;2024-03-02T03:27:26;98189.93;;;5.49;100.00
34921;BME280;21128;50.016;20.002;2024-03-02T03:29:53;98188.35;;;5.51;100.00
34921;BME280;21128;50.016;20.002;2024-03-02T03:32:21;98180.90;;;5.53;100.00
34921;BME280;21128;50.016;20.002;2024-03-02T03:34:48;98181.01;;;5.54;100.00
34921;BME280;21128;50.016;20.002;2024-03-02T03:37:15;98178.73;;;5.54;100.00
34921;BME280;21128;50.016;20.002;2024-03-02T03:39:42;98177.27;;;5.55;100.00
34921;BME280;21128;50.016;20.002;2024-03-02T03:42:09;98174.42;;;5.56;100.00
34921;BME280;21128;50.016;20.002;2024-03-02T03:44:36;98176.41;;;5.57;100.00
34921;BME280;21128;50.016;20.002;2024-03-02T03:47:02;98175.84;;;5.57;100.00
34921;BME280;21128;50.016;20.002;2024-03-02T03:49:29;98174.66;;;5.57;100.00
34921;BME280;21128;50.016;20.002;2024-03-02T03:51:56;98171.26;;;5.56;100.00
34921;BME280;21128;50.016;20.002;2024-03-02T03:54:23;98173.20;;;5.56;100.00
34921;BME280;21128;50.016;20.002;2024-03-02T03:56:49;98174.09;;;5.56;100.00
34921;BME280;21128;50.016;20.002;2024-03-02T03:59:16;98174.11;;;5.55;100.00
34921;BME280;21128;50.016;20.002;2024-03-02T04:01:43;98172.52;;;5.54;100.00
34921;BME280;21128;50.016;20.002;2024-03-02T04:04:09;98171.52;;;5.53;100.00
34921;BME280;21128;50.016;20.002;2024-03-02T04:06:36;98169.98;;;5.53;100.00
34921;BME280;21128;50.016;20.002;2024-03-02T04:09:03;98170.61;;;5.51;100.00
34921;BME280;21128;50.016;20.002;2024-03-02T04:11:30;98168.94;;;5.51;100.00
34921;BME280;21128;50.016;20.002;2024-03-02T04:13:57;98169.15;;;5.50;100.00
34921;BME280;21128;50.016;20.002;2024-03-02T04:16:24;98170.77;;;5.50;100.00
34921;BME280;21128;50.016;20.002;2024-03-02T04:18:50;98169.85;;;5.48;100.00
34921;BME280;21128;50.016;20.002;2024-03-02T04:21:17;98174.59;;;5.45;100.00
34921;BME280;21128;50.016;20.002;2024-03-02T04:23:44;98173.36;;;5.43;100.00
34921;BME280;21128;50.016;20.002;2024-03-02T04:26:10;98179.20;;;5.42;100.00
34921;BME280;21128;50.016;20.002;2024-03-02T04:28:37;98181.42;;;5.41;100.00
34921;BME280;21128;50.016;20.002;2024-03-02T04:31:04;98186.80;;;5.38;100.00
34921;BME280;21128;50.016;20.002;2024-03-02T04:33:31;98186.42;;;5.36;100.00
34921;BME280;21128;50.016;20.002;2024-03-02T04:35:58;98182.25;;;5.34;100.00
34921;BME280;21128;50.016;20.002;2024-03-02T04:38:24;98178.15;;;5.32;100.00
34921;BME280;21128;50.016;20.002;2024-03-02T04:40:51;98175.10;;;5.31;100.00
34921;BME280;21128;50.016;20.002;2024-03-02T04:43:18;98176.70;;;5.28;100.00
34921;BME280;21128;50.016;20.002;2024-03-02T04:45:45;98175.90;;;5.27;100.00
34921;BME280;21128;50.016;20.002;2024-03-02T04:48:12;98172.16;;;5.24;100.00
34921;BME280;21128;50.016;20.002;2024-03-02T04:50:39;98171.02;;;5.23;100.00
34921;BME280;21128;50.016;20.002;2024-03-02T04:53:06;98164.26;;;5.23;100.00
34921;BME280;21128;50.016;20.002;2024-03-02T04:55:33;98160.59;;;5.23;100.00
34921;BME280;21128;50.016;20.002;2024-03-02T04:58:06;98163.48;;;5.24;100.00
34921;BME280;21128;50.016;20.002;2024-03-02T05:00:34;98164.38;;;5.24;100.00
34921;BME280;21128;50.016;20.002;2024-03-02T05:03:02;98166.70;;;5.23;100.00
34921;BME280;21128;50.016;20.002;2024-03-02T05:05:29;98170.67;;;5.21;100.00
34921;BME280;21128;50.016;20.002;2024-03-02T05:07:56;98176.56;;;5.17;100.00
34921;BME280;21128;50.016;20.002;2024-03-02T05:10:22;98175.70;;;5.15;100.00
34921;BME280;21128;50.016;20.002;2024-03-02T05:12:51;98179.80;;;5.14;100.00
34921;BME280;21128;50.016;20.002;2024-03-02T05:15:26;98186.36;;;5.14;100.00
34921;BME280;21128;50.016;20.002;2024-03-02T05:17:53;98192.92;;;5.15;100.00
34921;BME280;21128;50.016;20.002;2024-03-02T05:20:20;98195.39;;;5.14;100.00
34921;BME280;21128;50.016;20.002;2024-03-02T05:22:47;98199.14;;;5.15;100.00
34921;BME280;21128;50.016;20.002;2024-03-02T05:25:14;98202.41;;;5.15;100.00
34921;BME280;21128;50.016;20.002;2024-03-02T05:27:40;98203.92;;;5.16;100.00
34921;BME280;21128;50.016;20.002;2024-03-02T05:30:08;98206.47;;;5.17;100.00
34921;BME280;21128;50.016;20.002;2024-03-02T05:32:35;98206.09;;;5.17;100.00
34921;BME280;21128;50.016;20.002;2024-03-02T05:35:02;98204.84;;;5.17;100.00
34921;BME280;21128;50.016;20.002;2024-03-02T05:37:29;98207.58;;;5.18;100.00
34921;BME280;21128;50.016;20.002;2024-03-02T05:39:56;98209.10;;;5.20;100.00
34921;BME280;21128;50.016;20.002;2024-03-02T05:42:23;98213.14;;;5.22;100.00
34921;BME280;21128;50.016;20.002;2024-03-02T05:44:49;98212.29;;;5.22;100.00
34921;BME280;21128;50.016;20.002;2024-03-02T05:47:16;98213.88;;;5.26;100.00
34921;BME280;21128;50.016;20.002;2024-03-02T05:49:43;98213.65;;;5.28;100.00
34921;BME280;21128;50.016;20.002;2024-03-02T05:52:10;98212.45;;;5.32;100.00
34921;BME280;21128;50.016;20.002;2024-03-02T05:54:38;98211.25;;;5.36;100.00
34921;BME280;21128;50.016;20.002;2024-03-02T05:57:05;98203.31;;;5.41;100.00
34921;BME280;21128;50.016;20.002;2024-03-02T05:59:58;98204.00;;;5.43;100.00
34921;BME280;21128;50.016;20.002;2024-03-02T06:02:25;98211.66;;;5.43;100.00
34921;BME280;21128;50.016;20.002;2024-03-02T06:04:55;98216.45;;;5.45;100.00
34921;BME280;21128;50.016;20.002;2024-03-02T06:07:22;98219.52;;;5.51;100.00
34921;BME280;21128;50.016;20.002;2024-03-02T06:09:49;98220.08;;;5.56;100.00
34921;BME280;21128;50.016;20.002;2024-03-02T06:12:18;98224.64;;;5.62;100.00
34921;BME280;21128;50.016;20.002;2024-03-02T06:14:45;98226.44;;;5.65;100.00
34921;BME280;21128;50.016;20.002;2024-03-02T06:17:12;98226.61;;;5.70;100.00
34921;BME280;21128;50.016;20.002;2024-03-02T06:19:39;98228.90;;;5.73;100.00
34921;BME280;21128;50.016;20.002;2024-03-02T06:22:06;98232.35;;;5.78;100.00
34921;BME280;21128;50.016;20.002;2024-03-02T06:24:32;98235.20;;;5.81;100.00
34921;BME280;21128;50.016;20.002;2024-03-02T06:26:59;98236.55;;;5.82;100.00
34921;BME280;21128;50.016;20.002;2024-03-02T06:29:26;98234.77;;;5.82;100.00
34921;BME280;21128;50.016;20.002;2024-03-02T06:31:52;98230.67;;;5.85;100.00
34921;BME280;21128;50.016;20.002;2024-03-02T06:34:19;98229.86;;;5.89;100.00
34921;BME280;21128;50.016;20.002;2024-03-02T06:36:46;98231.73;;;5.94;100.00
34921;BME280;21128;50.016;20.002;2024-03-02T06:39:13;98231.45;;;5.98;100.00
34921;BME280;21128;50.016;20.002;2024-03-02T06:41:39;98228.80;;;6.00;100.00
34921;BME280;21128;50.016;20.002;2024-03-02T06:44:06;98229.02;;;6.04;100.00
34921;BME280;21128;50.016;20.002;2024-03-02T06:46:33;98233.64;;;6.09;100.00
34921;BME280;21128;50.016;20.002;2024-03-02T06:48:59;98232.77;;;6.15;100.00
34921;BME280;21128;50.016;20.002;2024-03-02T06:51:29;98228.57;;;6.17;100.00
34921;BME280;21128;50.016;20.002;2024-03-02T06:53:56;98235.33;;;6.17;100.00
34921;BME280;21128;50.016;20.002;2024-03-02T06:56:22;98232.09;;;6.20;100.00
34921;BME280;21128;50.016;20.002;2024-03-02T06:58:49;98231.93;;;6.23;100.00
34921;BME280;21128;50.016;20.002;2024-03-02T07:01:16;98235.13;;;6.24;100.00
34921;BME280;21128;50.016;20.002;2024-03-02T07:03:42;98241.05;;;6.24;100.00
34921;BME280;21128;50.016;20.002;2024-03-02T07:06:10;98237.57;;;6.24;100.00
34921;BME280;21128;50.016;20.002;2024-03-02T07:08:37;98237.40;;;6.30;100.00
34921;BME280;21128;50.016;20.002;2024-03-02T07:11:04;98235.20;;;6.37;100.00
34921;BME280;21128;50.016;20.002;2024-03-02T07:13:30;98231.34;;;6.44;100.00
34921;BME280;21128;50.016;20.002;2024-03-02T07:15:57;98238.08;;;6.51;100.00
34921;BME280;21128;50.016;20.002;2024-03-02T07:18:30;98255.09;;;6.55;100.00
34921;BME280;21128;50.016;20.002;2024-03-02T07:20:57;98256.10;;;6.58;100.00
34921;BME280;21128;50.016;20.002;2024-03-02T07:23:28;98253.95;;;6.56;100.00
34921;BME280;21128;50.016;20.002;2024-03-02T07:25:56;98248.80;;;6.58;100.00
34921;BME280;21128;50.016;20.002;2024-03-02T07:28:23;98252.81;;;6.59;100.00
34921;BME280;21128;50.016;20.002;2024-03-02T07:31:03;98259.52;;;6.63;100.00
34921;BME280;21128;50.016;20.002;2024-03-02T07:33:31;98262.53;;;6.60;100.00
34921;BME280;21128;50.016;20.002;2024-03-02T07:35:59;98257.89;;;6.59;100.00
34921;BME280;21128;50.016;20.002;2024-03-02T07:38:28;98256.87;;;6.65;100.00
34921;BME280;21128;50.016;20.002;2024-03-02T07:40:55;98256.16;;;6.73;100.00
34921;BME280;21128;50.016;20.002;2024-03-02T07:43:22;98260.56;;;6.81;100.00
34921;BME280;21128;50.016;20.002;2024-03-02T07:45:49;98257.71;;;6.87;100.00
34921;BME280;21128;50.016;20.002;2024-03-02T07:48:17;98258.02;;;6.90;100.00
34921;BME280;21128;50.016;20.002;2024-03-02T07:50:44;98258.77;;;6.91;100.00
34921;BME280;21128;50.016;20.002;2024-03-02T07:53:11;98264.37;;;6.97;100.00
34921;BME280;21128;50.016;20.002;2024-03-02T07:55:38;98263.52;;;7.04;100.00
34921;BME280;21128;50.016;20.002;2024-03-02T07:58:05;98267.79;;;7.12;100.00
34921;BME280;21128;50.016;20.002;2024-03-02T08:00:32;98273.03;;;7.15;100.00
34921;BME280;21128;50.016;20.002;2024-03-02T08:02:59;98274.71;;;7.20;100.00
34921;BME280;21128;50.016;20.002;2024-03-02T08:05:26;98274.02;;;7.24;100.00
34921;BME280;21128;50.016;20.002;2024-03-02T08:07:53;98277.27;;;7.29;100.00
34921;BME280;21128;50.016;20.002;2024-03-02T08:10:21;98273.67;;;7.32;100.00
34921;BME280;21128;50.016;20.002;2024-03-02T08:12:47;98275.52;;;7.32;100.00
34921;BME280;21128;50.016;20.002;2024-03-02T08:15:14;98271.31;;;7.33;100.00
34921;BME280;21128;50.016;20.002;2024-03-02T08:17:41;98270.59;;;7.33;100.00
34921;BME280;21128;50.016;20.002;2024-03-02T08:20:12;98272.79;;;7.36;100.00
34921;BME280;21128;50.016;20.002;2024-03-02T08:22:39;98270.27;;;7.37;100.00
34921;BME280;21128;50.016;20.002;2024-03-02T08:25:07;98271.44;;;7.37;100.00
34921;BME280;21128;50.016;20.002;2024-03-02T08:27:35;98272.45;;;7.38;100.00
34921;BME280;21128;50.016;20.002;2024-03-02T08:30:02;98277.30;;;7.34;100.00
34921;BME280;21128;50.016;20.002;2024-03-02T08:32:33;98277.73;;;7.35;100.00
34921;BME280;21128;50.016;20.002;2024-03-02T08:34:59;98275.45;;;7.37;100.00
34921;BME280;21128;50.016;20.002;2024-03-02T08:37:26;98279.64;;;7.39;100.00
34921;BME280;21128;50.016;20.002;2024-03-02T08:39:53;98287.58;;;7.40;100.00
34921;BME280;21128;50.016;20.002;2024-03-02T08:42:21;98284.82;;;7.40;100.00
34921;BME280;21128;50.016;20.002;2024-03-02T08:44:48;98283.13;;;7.39;100.00
34921;BME280;21128;50.016;20.002;2024-03-02T08:47:15;98284.33;;;7.39;100.00
34921;BME280;21128;50.016;20.002;2024-03-02T08:49:42;98286.95;;;7.43;100.00
34921;BME280;21128;50.016;20.002;2024-03-02T08:52:09;98286.75;;;7.47;100.00
34921;BME280;21128;50.016;20.002;2024-03-02T08:54:36;98287.75;;;7.52;100.00
34921;BME280;21128;50.016;20.002;2024-03-02T08:57:05;98290.48;;;7.58;100.00
34921;BME280;21128;50.016;20.002;2024-03-02T08:59:32;98291.42;;;7.65;100.00
34921;BME280;21128;50.016;20.002;2024-03-02T09:01:59;98296.88;;;7.67;100.00
34921;BME280;21128;50.016;20.002;2024-03-02T09:04:27;98299.00;;;7.67;100.00
34921;BME280;21128;50.016;20.002;2024-03-02T09:06:55;98296.98;;;7.68;100.00
34921;BME280;21128;50.016;20.002;2024-03-02T09:09:22;98295.61;;;7.69;100.00
34921;BME280;21128;50.016;20.002;2024-03-02T09:11:48;98294.41;;;7.71;100.00
34921;BME280;21128;50.016;20.002;2024-03-02T09:14:15;98294.59;;;7.69;100.00
34921;BME280;21128;50.016;20.002;2024-03-02T09:16:42;98298.64;;;7.69;100.00
34921;BME280;21128;50.016;20.002;2024-03-02T09:19:09;98298.25;;;7.69;100.00
34921;BME280;21128;50.016;20.002;2024-03-02T09:21:37;98301.46;;;7.70;100.00
34921;BME280;21128;50.016;20.002;2024-03-02T09:24:04;98302.95;;;7.71;100.00
34921;BME280;21128;50.016;20.002;2024-03-02T09:26:33;98306.59;;;7.71;100.00
34921;BME280;21128;50.016;20.002;2024-03-02T09:29:00;98312.99;;;7.72;100.00
34921;BME280;21128;50.016;20.002;2024-03-02T09:31:26;98317.33;;;7.74;100.00
34921;BME280;21128;50.016;20.002;2024-03-02T09:33:53;98317.59;;;7.81;100.00
34921;BME280;21128;50.016;20.002;2024-03-02T09:36:21;98317.80;;;7.86;100.00
34921;BME280;21128;50.016;20.002;2024-03-02T09:38:52;98319.36;;;7.88;100.00
34921;BME280;21128;50.016;20.002;2024-03-02T09:41:19;98322.56;;;7.87;100.00
34921;BME280;21128;50.016;20.002;2024-03-02T09:43:46;98326.39;;;7.85;100.00
34921;BME280;21128;50.016;20.002;2024-03-02T09:46:13;98327.38;;;7.86;100.00
34921;BME280;21128;50.016;20.002;2024-03-02T09:48:41;98325.98;;;7.90;100.00
34921;BME280;21128;50.016;20.002;2024-03-02T09:51:08;98326.27;;;7.97;100.00
34921;BME280;21128;50.016;20.002;2024-03-02T09:53:36;98324.50;;;8.01;100.00
34921;BME280;21128;50.016;20.002;2024-03-02T09:56:03;98326.80;;;8.04;100.00
34921;BME280;21128;50.016;20.002;2024-03-02T09:58:31;98333.85;;;8.11;100.00
34921;BME280;21128;50.016;20.002;2024-03-02T10:00:58;98335.41;;;8.13;100.00
34921;BME280;21128;50.016;20.002;2024-03-02T10:03:25;98334.95;;;8.16;100.00
34921;BME280;21128;50.016;20.002;2024-03-02T10:05:53;98334.77;;;8.22;100.00
34921;BME280;21128;50.016;20.002;2024-03-02T10:08:20;98336.70;;;8.30;100.00
34921;BME280;21128;50.016;20.002;2024-03-02T10:10:47;98337.17;;;8.40;100.00
34921;BME280;21128;50.016;20.002;2024-03-02T10:13:14;98333.77;;;8.47;100.00
34921;BME280;21128;50.016;20.002;2024-03-02T10:15:41;98328.84;;;8.49;100.00
34921;BME280;21128;50.016;20.002;2024-03-02T10:18:12;98325.65;;;8.52;100.00
34921;BME280;21128;50.016;20.002;2024-03-02T10:20:40;98322.08;;;8.54;100.00
34921;BME280;21128;50.016;20.002;2024-03-02T10:23:11;98324.29;;;8.62;100.00
34921;BME280;21128;50.016;20.002;2024-03-02T10:25:39;98317.53;;;8.73;100.00
34921;BME280;21128;50.016;20.002;2024-03-02T10:28:06;98313.85;;;8.83;100.00
34921;BME280;21128;50.016;20.002;2024-03-02T10:30:33;98315.42;;;8.88;100.00
34921;BME280;21128;50.016;20.002;2024-03-02T10:33:01;98314.55;;;8.90;100.00
34921;BME280;21128;50.016;20.002;2024-03-02T10:35:29;98312.34;;;8.95;100.00
34921;BME280;21128;50.016;20.002;2024-03-02T10:37:59;98305.84;;;9.01;100.00
34921;BME280;21128;50.016;20.002;2024-03-02T10:40:27;98305.58;;;9.09;100.00
34921;BME280;21128;50.016;20.002;2024-03-02T10:42:54;98308.33;;;9.20;100.00
34921;BME280;21128;50.016;20.002;2024-03-02T10:45:21;98306.45;;;9.31;100.00
34921;BME280;21128;50.016;20.002;2024-03-02T10:47:51;98300.13;;;9.37;100.00
34921;BME280;21128;50.016;20.002;2024-03-02T10:50:18;98300.67;;;9.40;100.00
34921;BME280;21128;50.016;20.002;2024-03-02T10:52:45;98299.48;;;9.43;100.00
34921;BME280;21128;50.016;20.002;2024-03-02T10:55:12;98296.77;;;9.51;100.00
34921;BME280;21128;50.016;20.002;2024-03-02T10:57:50;98294.36;;;9.66;100.00
34921;BME280;21128;50.016;20.002;2024-03-02T11:00:18;98291.23;;;9.81;100.00
34921;BME280;21128;50.016;20.002;2024-03-02T11:02:54;98290.31;;;9.94;100.00
34921;BME280;21128;50.016;20.002;2024-03-02T11:05:32;98295.91;;;9.96;100.00
34921;BME280;21128;50.016;20.002;2024-03-02T11:08:02;98295.52;;;10.03;100.00
34921;BME280;21128;50.016;20.002;2024-03-02T11:10:51;98293.35;;;10.11;100.00
34921;BME280;21128;50.016;20.002;2024-03-02T11:13:40;98298.04;;;10.22;100.00
34921;BME280;21128;50.016;20.002;2024-03-02T11:16:14;98299.30;;;10.32;100.00
34921;BME280;21128;50.016;20.002;2024-03-02T11:18:43;98297.14;;;10.42;100.00
34921;BME280;21128;50.016;20.002;2024-03-02T11:21:11;98296.02;;;10.48;100.00
34921;BME280;21128;50.016;20.002;2024-03-02T11:23:38;98298.52;;;10.51;100.00
34921;BME280;21128;50.016;20.002;2024-03-02T11:26:18;98294.44;;;10.51;100.00
34921;BME280;21128;50.016;20.002;2024-03-02T11:28:46;98293.61;;;10.54;100.00
34921;BME280;21128;50.016;20.002;2024-03-02T11:31:13;98293.38;;;10.57;100.00
34921;BME280;21128;50.016;20.002;2024-03-02T11:33:40;98291.73;;;10.54;100.00
34921;BME280;21128;50.016;20.002;2024-03-02T11:36:07;98284.23;;;10.47;100.00
34921;BME280;21128;50.016;20.002;2024-03-02T11:38:35;98280.66;;;10.44;100.00
34921;BME280;21128;50.016;20.002;2024-03-02T11:41:06;98278.77;;;10.49;100.00
34921;BME280;21128;50.016;20.002;2024-03-02T11:43:38;98277.62;;;10.55;100.00
34921;BME280;21128;50.016;20.002;2024-03-02T11:46:06;98272.86;;;10.57;100.00
34921;BME280;21128;50.016;20.002;2024-03-02T11:48:37;98271.31;;;10.58;100.00
34921;BME280;21128;50.016;20.002;2024-03-02T11:51:05;98269.85;;;10.59;100.00
34921;BME280;21128;50.016;20.002;2024-03-02T11:53:33;98273.92;;;10.63;100.00
34921;BME280;21128;50.016;20.002;2024-03-02T11:56:01;98270.84;;;10.64;100.00
34921;BME280;21128;50.016;20.002;2024-03-02T11:58:28;98270.84;;;10.65;100.00
34921;BME280;21128;50.016;20.002;2024-03-02T12:00:56;98273.04;;;10.65;100.00
34921;BME280;21128;50.016;20.002;2024-03-02T12:03:24;98275.34;;;10.65;100.00
34921;BME280;21128;50.016;20.002;2024-03-02T12:05:53;98270.91;;;10.71;100.00
34921;BME280;21128;50.016;20.002;2024-03-02T12:08:20;98269.98;;;10.76;100.00
34921;BME280;21128;50.016;20.002;2024-03-02T12:11:00;98275.15;;;10.82;100.00
34921;BME280;21128;50.016;20.002;2024-03-02T12:13:28;98281.64;;;10.89;100.00
34921;BME280;21128;50.016;20.002;2024-03-02T12:15:55;98280.59;;;10.91;100.00
34921;BME280;21128;50.016;20.002;2024-03-02T12:18:26;98282.20;;;10.90;100.00
34921;BME280;21128;50.016;20.002;2024-03-02T12:20:53;98287.23;;;10.84;100.00
34921;BME280;21128;50.016;20.002;2024-03-02T12:23:23;98283.05;;;10.77;100.00
34921;BME280;21128;50.016;20.002;2024-03-02T12:25:50;98276.66;;;10.74;100.00
34921;BME280;21128;50.016;20.002;2024-03-02T12:28:17;98274.55;;;10.78;100.00
34921;BME280;21128;50.016;20.002;2024-03-02T12:30:46;98277.73;;;10.84;100.00
34921;BME280;21128;50.016;20.002;2024-03-02T12:33:14;98271.46;;;10.92;100.00
34921;BME280;21128;50.016;20.002;2024-03-02T12:35:41;98276.61;;;11.00;100.00
34921;BME280;21128;50.016;20.002;2024-03-02T12:38:09;98278.05;;;11.04;100.00
34921;BME280;21128;50.016;20.002;2024-03-02T12:40:37;98278.73;;;11.10;100.00
34921;BME280;21128;50.016;20.002;2024-03-02T12:43:05;98272.61;;;11.17;100.00
34921;BME280;21128;50.016;20.002;2024-03-02T12:45:32;98271.42;;;11.28;100.00
34921;BME280;21128;50.016;20.002;2024-03-02T12:48:00;98272.52;;;11.39;100.00
34921;BME280;21128;50.016;20.002;2024-03-02T12:50:27;98266.81;;;11.53;100.00
34921;BME280;21128;50.016;20.002;2024-03-02T12:52:54;98258.52;;;11.66;100.00